»·PEaware :: UAL314 LSGG-EGLC

UAL314 :: LSGG-EGLC

FLIGHT INFORMATION

Flight Status: Arrived
Operator:
United Airlines
More flights by this operator :: More flights under this callsign
Pilot: Timothy W. (9658)
Aircraft: AIRBUS A319
(A319)
More flights by this aircraft type
Origin: LSGG Geneva
Switzerland
Destination: EGLC London City
United Kingdom
More flights between these airports :: More routes between these airports
Route: MOLU3A MOLUS UN871 DITON UL613 SOVAT GODL1D
File this flight plan on PilotEdge
Remarks:
Altitude:
(Current/Filed)
34,000ft
Speed:
(Current/Filed)
452kts
Departed: 21-May-18 09:36 AM
Arrived: 21-May-18 11:12 AM
Distance/Time
Traveled:
396nm/1:36
Distance/Time
To Go:
Arrived

Flight Plot

Page will automatically refresh every two minutes.


Map Options




Map Legend


Flown Route
Filed Route
Departure Airport
Arrival Airport
Navaid (VOR, NDB)
Fix

Horizontal Profiles

Position Reports

Time Latitude Longitude Heading Altitude Ground
Speed
21-May-18 09:34 46.250293 6.126894 225 1373ft 0kts
21-May-18 09:35 46.250293 6.126894 225 1373ft 0kts
21-May-18 09:36 46.228580 6.094728 225 2641ft 171kts
21-May-18 09:37 46.191131 6.039886 225 5529ft 231kts
21-May-18 09:38 46.142150 5.980226 190 8816ft 267kts
21-May-18 09:39 46.091722 6.046703 83 11225ft 323kts
21-May-18 09:40 46.148867 6.158159 53 13724ft 365kts
21-May-18 09:41 46.214156 6.273795 50 16625ft 381kts
21-May-18 09:42 46.282414 6.393500 50 19167ft 396kts
21-May-18 09:43 46.352961 6.517848 50 21420ft 409kts
21-May-18 09:44 46.425276 6.646223 50 23444ft 422kts
21-May-18 09:45 46.500181 6.780454 50 25282ft 434kts
21-May-18 09:46 46.576059 6.917023 50 26885ft 445kts
21-May-18 09:47 46.650561 7.051033 50 28242ft 454kts
21-May-18 09:48 46.729886 7.193764 51 29487ft 462kts
21-May-18 09:49 46.807579 7.335037 51 31076ft 459kts
21-May-18 09:50 46.886721 7.480163 51 32618ft 456kts
21-May-18 09:51 46.964902 7.624506 51 34002ft 454kts
21-May-18 09:52 47.038730 7.761397 51 34028ft 453kts
21-May-18 09:53 47.116428 7.905991 51 34028ft 453kts
21-May-18 09:54 47.182235 8.051220 57 34028ft 453kts
21-May-18 09:55 47.254316 8.181767 36 34030ft 453kts
21-May-18 09:56 47.371198 8.243241 2 34029ft 453kts
21-May-18 09:57 47.490405 8.200133 329 34028ft 453kts
21-May-18 09:58 47.572940 8.069792 297 34030ft 453kts
21-May-18 09:59 47.598462 7.899209 274 34029ft 453kts
21-May-18 10:00 47.610391 7.714292 275 34028ft 453kts
21-May-18 10:01 47.621623 7.528938 274 34028ft 453kts
21-May-18 10:02 47.632386 7.343781 274 34028ft 453kts
21-May-18 10:03 47.642838 7.158662 274 34028ft 453kts
21-May-18 10:04 47.652985 6.973708 274 34028ft 453kts
21-May-18 10:05 47.663285 6.789875 274 34028ft 453kts
21-May-18 10:06 47.673180 6.604531 274 34028ft 453kts
21-May-18 10:07 47.682403 6.418746 274 34028ft 453kts
21-May-18 10:08 47.701023 6.235368 284 34028ft 453kts
21-May-18 10:09 47.736997 6.057019 287 34028ft 453kts
21-May-18 10:10 47.774885 5.879273 287 34028ft 453kts
21-May-18 10:11 47.813132 5.702397 287 34028ft 453kts
21-May-18 10:12 47.850329 5.524291 286 34028ft 453kts
21-May-18 10:13 47.888054 5.345494 291 34028ft 453kts
21-May-18 10:14 47.948535 5.182424 307 34028ft 453kts
21-May-18 10:15 48.031248 5.041860 312 34028ft 453kts
21-May-18 10:16 48.101355 4.925760 312 34028ft 453kts
21-May-18 10:17 48.185820 4.786143 311 34028ft 453kts
21-May-18 10:18 48.269531 4.645997 311 34028ft 453kts
21-May-18 10:19 48.353032 4.505452 311 34028ft 453kts
21-May-18 10:20 48.436456 4.363995 311 34028ft 453kts
21-May-18 10:21 48.519685 4.222074 311 34028ft 453kts
21-May-18 10:22 48.602397 4.080838 311 34028ft 453kts
21-May-18 10:23 48.685263 3.938937 313 34028ft 453kts
21-May-18 10:24 48.778241 3.817902 325 34028ft 453kts
21-May-18 10:25 48.883111 3.714131 326 34028ft 453kts
21-May-18 10:26 48.988455 3.609278 326 34028ft 453kts
21-May-18 10:27 49.092934 3.504584 326 34028ft 453kts
21-May-18 10:28 49.198078 3.398647 326 34028ft 453kts
21-May-18 10:29 49.302580 3.292682 326 34028ft 453kts
21-May-18 10:30 49.406903 3.186452 326 34028ft 453kts
21-May-18 10:31 49.511112 3.079802 326 34028ft 453kts
21-May-18 10:32 49.615174 2.973045 326 34028ft 453kts
21-May-18 10:33 49.719246 2.865830 326 34028ft 453kts
21-May-18 10:34 49.823196 2.757085 323 34028ft 453kts
21-May-18 10:35 49.915574 2.637863 319 34028ft 453kts
21-May-18 10:36 50.010263 2.511889 319 33435ft 454kts
21-May-18 10:37 50.099499 2.392695 319 32510ft 453kts
21-May-18 10:38 50.193412 2.266630 319 29091ft 460kts
21-May-18 10:39 50.281741 2.147453 319 27081ft 435kts
21-May-18 10:40 50.371163 2.026516 319 24900ft 419kts
21-May-18 10:41 50.457180 1.909435 319 22793ft 405kts
21-May-18 10:42 50.540577 1.796286 318 20755ft 391kts
21-May-18 10:43 50.618035 1.690130 318 18806ft 379kts
21-May-18 10:44 50.695684 1.582889 318 16832ft 368kts
21-May-18 10:45 50.770625 1.478760 318 14920ft 358kts
21-May-18 10:46 50.839842 1.380827 318 14142ft 307kts
21-May-18 10:47 50.911600 1.327843 2 14013ft 307kts
21-May-18 10:48 50.995863 1.324304 351 14014ft 307kts
21-May-18 10:49 51.076362 1.305259 351 14014ft 307kts
21-May-18 10:50 51.154127 1.286867 351 14007ft 264kts
21-May-18 10:51 51.222250 1.275867 355 13209ft 237kts
21-May-18 10:52 51.284356 1.267074 355 12210ft 215kts
21-May-18 10:53 51.346845 1.262599 14 11078ft 247kts
21-May-18 10:54 51.405339 1.300718 21 10126ft 228kts
21-May-18 10:55 51.466295 1.314526 3 10013ft 228kts
21-May-18 10:56 51.527973 1.305972 344 10012ft 228kts
21-May-18 10:57 51.566096 1.240807 256 9226ft 231kts
21-May-18 10:58 51.539948 1.147311 245 8205ft 229kts
21-May-18 10:59 51.514234 1.057567 245 7261ft 226kts
21-May-18 11:00 51.488218 0.966813 245 6307ft 223kts
21-May-18 11:01 51.476513 0.873345 274 6012ft 215kts
21-May-18 11:02 51.480564 0.777759 273 6013ft 215kts
21-May-18 11:03 51.484123 0.682134 273 6012ft 215kts
21-May-18 11:04 51.487602 0.585066 273 5120ft 218kts
21-May-18 11:05 51.491014 0.488388 273 4204ft 216kts
21-May-18 11:06 51.494234 0.395514 273 4009ft 209kts
21-May-18 11:07 51.497989 0.303816 273 3249ft 212kts
21-May-18 11:08 51.500346 0.222349 272 3019ft 147kts
21-May-18 11:09 51.502059 0.162510 272 2200ft 136kts
21-May-18 11:10 51.503721 0.104675 273 930ft 133kts
21-May-18 11:11 51.505371 0.049897 273 23ft 55kts
21-May-18 11:12 51.504730 0.045906 95 23ft 0kts
21-May-18 11:13 51.504520 0.047238 180 23ft 3kts
21-May-18 11:14 51.504400 0.047104 309 23ft 0kts
21-May-18 11:15 51.504400 0.047104 309 23ft 0kts
21-May-18 11:16 51.504400 0.047104 309 23ft 0kts
21-May-18 11:17 51.504400 0.047104 309 23ft 0kts

Navigation Log

Ident Type
Flight plan parsing failed, navigation log unavailable